Time;durP1;ratioP1;P1;durP2;ratioP2;P2;SDS_P1;SDS_P2;PMS_P1;PMS_P2;Temp;Humidity;BMP_temperature;BMP_pressure;BME280_temperature;BME280_humidity;BME280_pressure;Samples;Min_cycle;Max_cycle;Signal;HPM_P1;HPM_P2
2023/03/28 00:01:27;;;;;;;;;;;;;;;6.84;49.98;94067.47;5047996;28;19963;-67
2023/03/28 00:03:55;;;;;;;;;;;;;;;7.40;49.06;94057.31;5048742;28;19974;-67
2023/03/28 00:06:25;;;;;;;;;;;;;;;7.04;49.39;94080.63;5048248;28;20450;-66
2023/03/28 00:08:52;;;;;;;;;;;;;;;7.13;49.95;94080.94;5048839;28;20387;-66
2023/03/28 00:11:20;;;;;;;;;;;;;;;7.21;49.47;94092.69;5048306;28;20445;-65
2023/03/28 00:13:47;;;;;;;;;;;;;;;7.41;47.99;94111.03;5047292;28;19928;-66
2023/03/28 00:16:15;;;;;;;;;;;;;;;6.60;49.13;94118.38;5047930;28;19928;-65
2023/03/28 00:18:42;;;;;;;;;;;;;;;6.89;48.86;94100.59;5048546;28;20031;-65
2023/03/28 00:21:35;;;;;;;;;;;;;;;6.79;48.39;94118.75;5048173;28;20034;-64
2023/03/28 00:24:03;;;;;;;;;;;;;;;6.86;48.98;94127.13;5045382;28;19924;-65
2023/03/28 00:26:31;;;;;;;;;;;;;;;6.15;49.86;94138.78;5047938;28;19920;-67
2023/03/28 00:29:00;;;;;;;;;;;;;;;6.46;48.95;94143.22;5047862;28;19924;-67
2023/03/28 00:31:27;;;;;;;;;;;;;;;6.68;48.76;94156.94;5047170;28;20423;-68
2023/03/28 00:33:54;;;;;;;;;;;;;;;6.78;48.54;94159.63;5046540;28;19932;-66
2023/03/28 00:36:21;;;;;;;;;;;;;;;6.89;47.97;94171.69;5046188;28;20020;-66
2023/03/28 00:38:48;;;;;;;;;;;;;;;6.18;49.12;94172.13;5047809;28;20003;-65
2023/03/28 00:41:17;;;;;;;;;;;;;;;6.94;47.69;94169.13;5048042;28;19921;-67
2023/03/28 00:43:45;;;;;;;;;;;;;;;6.79;48.29;94171.59;5048293;28;19924;-66
2023/03/28 00:46:25;;;;;;;;;;;;;;;6.18;48.88;94178.09;5047818;28;19947;-65
2023/03/28 00:48:57;;;;;;;;;;;;;;;6.37;48.95;94181.13;5051912;28;20656;-67
2023/03/28 00:51:26;;;;;;;;;;;;;;;6.14;48.94;94210.03;5049960;28;19925;-67
2023/03/28 00:53:56;;;;;;;;;;;;;;;6.06;49.43;94187.84;5050792;28;19924;-66
2023/03/28 00:56:24;;;;;;;;;;;;;;;5.77;50.00;94198.66;5050951;28;19924;-67
2023/03/28 00:58:51;;;;;;;;;;;;;;;5.96;49.48;94187.75;5050790;28;19927;-66
2023/03/28 01:01:19;;;;;;;;;;;;;;;6.20;49.63;94203.88;5050422;28;19955;-67
2023/03/28 01:03:51;;;;;;;;;;;;;;;6.18;48.90;94205.94;5050559;28;19925;-67
2023/03/28 01:06:20;;;;;;;;;;;;;;;5.35;50.52;94215.78;5049483;28;19920;-69
2023/03/28 01:08:48;;;;;;;;;;;;;;;6.11;48.92;94239.91;5030369;28;19995;-65
2023/03/28 01:11:15;;;;;;;;;;;;;;;6.01;48.85;94213.03;5048991;28;20026;-65
2023/03/28 01:13:47;;;;;;;;;;;;;;;6.17;49.01;94227.75;5050182;28;19925;-65
2023/03/28 01:16:16;;;;;;;;;;;;;;;5.51;49.40;94231.34;5049389;28;20366;-67
2023/03/28 01:18:50;;;;;;;;;;;;;;;5.35;50.09;94231.38;5050326;28;19924;-64
2023/03/28 01:21:32;;;;;;;;;;;;;;;5.41;49.83;94233.03;5051154;28;19979;-66
2023/03/28 01:24:18;;;;;;;;;;;;;;;5.36;49.88;94227.78;5050311;28;19925;-66
2023/03/28 01:26:47;;;;;;;;;;;;;;;5.02;50.67;94235.59;5046216;28;19936;-63
2023/03/28 01:29:36;;;;;;;;;;;;;;;5.83;49.81;94234.94;5043400;28;19964;-64
2023/03/28 01:32:23;;;;;;;;;;;;;;;5.92;48.95;94258.69;5049292;28;19925;-65
2023/03/28 01:35:13;;;;;;;;;;;;;;;6.19;48.41;94249.09;5050109;28;19924;-66
2023/03/28 01:38:07;;;;;;;;;;;;;;;6.05;47.73;94240.13;5035853;28;19932;-66
2023/03/28 01:40:40;;;;;;;;;;;;;;;5.36;48.61;94232.97;5046547;28;19928;-65
2023/03/28 01:43:31;;;;;;;;;;;;;;;5.68;48.89;94244.31;5049054;28;20403;-65
2023/03/28 01:46:01;;;;;;;;;;;;;;;5.54;48.49;94258.69;5049061;28;20087;-66
2023/03/28 01:48:50;;;;;;;;;;;;;;;5.56;48.18;94254.03;5049517;28;20003;-68
2023/03/28 01:51:23;;;;;;;;;;;;;;;5.81;48.30;94257.75;5048918;28;19924;-65
2023/03/28 01:54:16;;;;;;;;;;;;;;;6.07;47.49;94261.47;5049287;28;20391;-64
2023/03/28 01:56:50;;;;;;;;;;;;;;;6.11;47.49;94258.13;5011684;28;19982;-64
2023/03/28 01:59:33;;;;;;;;;;;;;;;6.25;47.34;94258.56;5049695;28;20019;-65
2023/03/28 02:02:22;;;;;;;;;;;;;;;5.77;47.92;94266.25;5050682;28;19932;-65
2023/03/28 02:04:50;;;;;;;;;;;;;;;5.92;47.59;94263.88;5048993;28;19924;-65
2023/03/28 02:07:23;;;;;;;;;;;;;;;5.85;47.28;94289.28;5048666;28;19921;-65
2023/03/28 02:10:12;;;;;;;;;;;;;;;5.67;47.65;94260.94;5049149;28;19924;-66
2023/03/28 02:12:59;;;;;;;;;;;;;;;5.76;47.18;94269.88;5050292;28;19997;-67
2023/03/28 02:15:45;;;;;;;;;;;;;;;5.70;47.44;94255.25;5048921;28;20035;-67
2023/03/28 02:18:40;;;;;;;;;;;;;;;5.87;46.76;94250.81;5037906;28;19959;-68
2023/03/28 02:21:39;;;;;;;;;;;;;;;6.18;46.48;94241.56;5039742;28;19972;-64
2023/03/28 02:24:20;;;;;;;;;;;;;;;5.67;46.76;94243.53;5049878;28;20040;-67
2023/03/28 02:27:10;;;;;;;;;;;;;;;5.61;47.09;94230.69;5041469;28;20019;-67
2023/03/28 02:29:53;;;;;;;;;;;;;;;5.26;47.60;94238.00;5048817;28;19924;-68
2023/03/28 02:32:49;;;;;;;;;;;;;;;5.67;47.50;94237.53;5036760;28;19924;-68
2023/03/28 02:35:21;;;;;;;;;;;;;;;5.58;47.74;94242.38;5050062;28;19947;-66
2023/03/28 02:38:05;;;;;;;;;;;;;;;5.42;48.55;94253.56;5048153;28;19994;-68
2023/03/28 02:40:38;;;;;;;;;;;;;;;5.42;48.21;94250.19;5049710;28;19963;-65
2023/03/28 02:43:16;;;;;;;;;;;;;;;5.33;48.33;94264.63;5049643;28;19921;-66
2023/03/28 02:45:55;;;;;;;;;;;;;;;5.64;48.19;94264.03;5046889;28;19921;-66
2023/03/28 02:48:31;;;;;;;;;;;;;;;5.35;48.06;94268.53;5047241;28;19921;-66
2023/03/28 02:51:13;;;;;;;;;;;;;;;5.11;48.17;94267.94;5050354;28;19943;-66
2023/03/28 02:53:43;;;;;;;;;;;;;;;5.28;47.97;94261.94;5048707;28;20304;-65
2023/03/28 02:56:18;;;;;;;;;;;;;;;5.58;47.63;94257.97;5047298;28;19924;-69
2023/03/28 02:59:08;;;;;;;;;;;;;;;5.48;47.61;94251.81;5048155;28;19929;-64
2023/03/28 03:01:35;;;;;;;;;;;;;;;5.47;47.34;94261.44;5048836;28;19986;-66
2023/03/28 03:04:02;;;;;;;;;;;;;;;5.31;47.37;94264.06;5049857;28;20307;-67
2023/03/28 03:06:29;;;;;;;;;;;;;;;5.59;46.85;94264.72;5047241;28;19927;-67
2023/03/28 03:08:56;;;;;;;;;;;;;;;5.72;47.03;94279.19;5048867;28;19920;-68
2023/03/28 03:11:26;;;;;;;;;;;;;;;5.47;47.25;94265.84;5047177;28;19924;-71
2023/03/28 03:13:54;;;;;;;;;;;;;;;5.20;47.60;94281.28;5047565;28;20005;-66
2023/03/28 03:16:22;;;;;;;;;;;;;;;5.69;46.88;94279.69;5046607;28;20035;-65
2023/03/28 03:18:49;;;;;;;;;;;;;;;5.56;46.41;94280.00;5047708;28;19975;-66
2023/03/28 03:21:16;;;;;;;;;;;;;;;5.40;46.80;94291.22;5048225;28;19971;-67
2023/03/28 03:23:43;;;;;;;;;;;;;;;5.43;46.82;94281.13;5049264;28;19982;-68
2023/03/28 03:26:10;;;;;;;;;;;;;;;5.39;46.12;94279.22;5047092;28;20679;-68
2023/03/28 03:28:40;;;;;;;;;;;;;;;5.38;45.89;94304.44;5049608;28;20427;-65
2023/03/28 03:31:07;;;;;;;;;;;;;;;5.29;46.47;94305.06;5048560;28;20703;-68
2023/03/28 03:34:12;;;;;;;;;;;;;;;5.47;44.98;94291.84;4987391;28;19925;-70
2023/03/28 03:36:45;;;;;;;;;;;;;;;5.63;44.87;94317.00;4986966;28;20415;-68
2023/03/28 03:39:12;;;;;;;;;;;;;;;5.50;45.17;94312.94;5007840;28;19920;-65
2023/03/28 03:41:38;;;;;;;;;;;;;;;5.37;44.91;94320.25;5047271;28;19921;-65
2023/03/28 03:44:05;;;;;;;;;;;;;;;5.34;44.42;94315.53;5049179;28;20011;-65
2023/03/28 03:46:32;;;;;;;;;;;;;;;5.51;44.35;94339.72;5047559;28;19921;-65
2023/03/28 03:48:59;;;;;;;;;;;;;;;5.30;44.89;94343.78;5036169;28;20372;-65
2023/03/28 03:51:25;;;;;;;;;;;;;;;5.70;44.33;94343.63;5043213;28;19925;-66
2023/03/28 03:53:58;;;;;;;;;;;;;;;5.38;44.65;94351.22;5037720;28;19921;-67
2023/03/28 03:56:35;;;;;;;;;;;;;;;5.47;44.13;94343.81;5042844;28;19968;-65
2023/03/28 03:59:02;;;;;;;;;;;;;;;5.50;44.03;94343.31;5040686;28;19956;-65
2023/03/28 04:01:31;;;;;;;;;;;;;;;5.69;43.88;94358.41;5039566;28;20315;-67
2023/03/28 04:04:18;;;;;;;;;;;;;;;5.07;44.28;94360.28;5027985;28;19979;-67
2023/03/28 04:07:15;;;;;;;;;;;;;;;4.83;44.67;94353.66;5035216;28;20367;-66
2023/03/28 04:09:44;;;;;;;;;;;;;;;5.22;44.05;94387.56;5047491;28;19960;-68
2023/03/28 04:12:12;;;;;;;;;;;;;;;5.49;44.18;94370.34;5039360;28;19964;-66
2023/03/28 04:14:44;;;;;;;;;;;;;;;5.10;44.03;94391.00;5033837;28;19932;-68
2023/03/28 04:17:33;;;;;;;;;;;;;;;5.09;44.20;94389.41;5042530;28;20442;-68
2023/03/28 04:20:12;;;;;;;;;;;;;;;4.77;44.58;94390.13;5024056;28;19955;-67
2023/03/28 04:23:00;;;;;;;;;;;;;;;5.46;43.95;94381.19;5031824;28;19929;-67
2023/03/28 04:25:30;;;;;;;;;;;;;;;5.56;43.52;94378.75;5050254;28;20332;-68
2023/03/28 04:28:02;;;;;;;;;;;;;;;5.60;43.51;94370.22;5040392;28;19921;-65
2023/03/28 04:30:34;;;;;;;;;;;;;;;5.59;44.08;94378.28;5052003;28;20376;-68
2023/03/28 04:33:23;;;;;;;;;;;;;;;5.44;44.17;94385.84;5045229;28;20007;-65
2023/03/28 04:35:55;;;;;;;;;;;;;;;5.69;43.52;94388.84;5049916;28;19998;-67
2023/03/28 04:38:25;;;;;;;;;;;;;;;5.62;43.68;94401.97;5045117;28;19924;-68
2023/03/28 04:40:57;;;;;;;;;;;;;;;5.57;43.87;94406.31;5049927;28;20320;-67
2023/03/28 04:43:53;;;;;;;;;;;;;;;5.63;44.92;94421.75;5039872;28;20011;-66
2023/03/28 04:46:20;;;;;;;;;;;;;;;5.16;44.33;94428.22;5046017;28;19956;-69
2023/03/28 04:48:47;;;;;;;;;;;;;;;5.55;43.40;94434.31;5047524;28;19924;-68
2023/03/28 04:51:27;;;;;;;;;;;;;;;6.11;42.14;94444.63;5051088;28;19936;-72
2023/03/28 04:53:54;;;;;;;;;;;;;;;5.79;42.27;94464.34;5051530;28;20012;-69
2023/03/28 04:56:39;;;;;;;;;;;;;;;5.53;42.37;94462.38;5049537;28;20029;-70
2023/03/28 04:59:07;;;;;;;;;;;;;;;5.69;42.40;94456.41;5032312;28;19945;-65
2023/03/28 05:01:33;;;;;;;;;;;;;;;5.28;42.55;94467.13;5048359;28;19994;-65
2023/03/28 05:04:30;;;;;;;;;;;;;;;5.15;42.22;94469.00;5048975;28;19932;-73
2023/03/28 05:07:02;;;;;;;;;;;;;;;5.22;41.90;94455.09;5049760;28;19935;-68
2023/03/28 05:09:30;;;;;;;;;;;;;;;5.58;41.34;94480.66;5051030;28;19924;-71
2023/03/28 05:11:56;;;;;;;;;;;;;;;4.97;42.27;94486.53;5051060;28;19975;-68
2023/03/28 05:14:23;;;;;;;;;;;;;;;4.57;42.55;94452.81;5051753;28;20391;-70
2023/03/28 05:17:03;;;;;;;;;;;;;;;5.42;42.14;94486.63;5048452;28;20391;-72
2023/03/28 05:19:54;;;;;;;;;;;;;;;5.57;41.92;94481.66;5051097;28;19921;-69
2023/03/28 05:22:23;;;;;;;;;;;;;;;5.14;41.80;94496.00;5050827;28;19931;-69
2023/03/28 05:24:51;;;;;;;;;;;;;;;4.95;41.91;94476.41;5051454;28;20006;-70
2023/03/28 05:27:19;;;;;;;;;;;;;;;4.72;42.26;94476.47;5050214;28;19924;-70
2023/03/28 05:29:46;;;;;;;;;;;;;;;4.94;42.46;94474.84;5050487;28;19924;-70
2023/03/28 05:32:16;;;;;;;;;;;;;;;5.55;41.20;94476.69;5047935;28;20471;-73
2023/03/28 05:34:44;;;;;;;;;;;;;;;5.34;41.53;94479.19;5050645;28;19929;-70
2023/03/28 05:37:10;;;;;;;;;;;;;;;5.53;41.18;94496.94;5051862;28;20397;-70
2023/03/28 05:39:47;;;;;;;;;;;;;;;5.81;40.35;94493.50;5050754;28;19960;-70
2023/03/28 05:42:15;;;;;;;;;;;;;;;5.23;41.68;94498.19;5049860;28;19930;-67
2023/03/28 05:44:42;;;;;;;;;;;;;;;5.66;40.24;94506.25;5050480;28;19982;-66
2023/03/28 05:47:49;;;;;;;;;;;;;;;5.66;39.92;94514.03;5009271;28;20432;-70
2023/03/28 05:50:19;;;;;;;;;;;;;;;5.80;40.45;94515.34;4997218;28;19921;-69
2023/03/28 05:52:45;;;;;;;;;;;;;;;5.23;40.87;94517.19;5035630;28;19924;-71
2023/03/28 05:55:13;;;;;;;;;;;;;;;5.31;40.59;94531.63;5034907;28;20019;-69
2023/03/28 05:57:43;;;;;;;;;;;;;;;5.47;41.08;94521.28;5050274;28;20023;-69
2023/03/28 06:00:12;;;;;;;;;;;;;;;5.32;41.10;94527.97;5051038;28;19978;-69
2023/03/28 06:02:49;;;;;;;;;;;;;;;5.35;40.26;94524.91;5050401;28;19921;-74
2023/03/28 06:05:21;;;;;;;;;;;;;;;5.27;40.91;94527.91;5050667;28;19925;-69
2023/03/28 06:07:48;;;;;;;;;;;;;;;5.11;40.79;94537.97;5050148;28;20007;-70
2023/03/28 06:10:16;;;;;;;;;;;;;;;5.12;41.13;94549.97;5050606;28;19974;-69
2023/03/28 06:12:55;;;;;;;;;;;;;;;5.27;40.60;94530.50;5049869;28;20360;-70
2023/03/28 06:15:22;;;;;;;;;;;;;;;5.67;40.32;94546.81;5050413;28;20042;-68
2023/03/28 06:17:49;;;;;;;;;;;;;;;5.82;40.44;94539.31;5049535;28;19921;-68
2023/03/28 06:20:16;;;;;;;;;;;;;;;5.79;40.12;94555.34;5050449;28;19928;-70
2023/03/28 06:22:43;;;;;;;;;;;;;;;5.68;39.77;94548.38;5033879;28;19929;-72
2023/03/28 06:25:10;;;;;;;;;;;;;;;5.50;39.34;94546.00;5051881;28;19920;-68
2023/03/28 06:27:37;;;;;;;;;;;;;;;5.50;39.32;94540.78;5051405;28;19929;-70
2023/03/28 06:30:04;;;;;;;;;;;;;;;5.39;39.49;94544.22;5051738;28;20015;-75
2023/03/28 06:32:38;;;;;;;;;;;;;;;5.54;39.14;94553.09;5050104;28;19921;-70
2023/03/28 06:35:05;;;;;;;;;;;;;;;5.72;38.57;94568.50;5050678;28;20487;-71
2023/03/28 06:37:32;;;;;;;;;;;;;;;6.00;38.64;94559.91;5050500;28;19927;-69
2023/03/28 06:40:06;;;;;;;;;;;;;;;5.52;39.56;94565.53;5050179;28;20064;-70
2023/03/28 06:42:33;;;;;;;;;;;;;;;5.83;39.26;94572.09;5037775;28;19978;-70
2023/03/28 06:45:13;;;;;;;;;;;;;;;5.70;39.91;94572.34;5049801;28;19956;-68
2023/03/28 06:47:58;;;;;;;;;;;;;;;5.57;39.59;94568.22;5050749;28;20398;-69
2023/03/28 06:50:51;;;;;;;;;;;;;;;5.56;39.49;94584.03;5040067;28;19921;-71
2023/03/28 06:53:20;;;;;;;;;;;;;;;5.70;39.70;94574.94;5049705;28;19927;-69
2023/03/28 06:55:51;;;;;;;;;;;;;;;5.78;39.04;94579.78;5049542;28;19928;-71
2023/03/28 06:58:18;;;;;;;;;;;;;;;5.71;38.86;94581.72;5049289;28;19925;-71
2023/03/28 07:00:53;;;;;;;;;;;;;;;5.46;39.28;94576.03;5050666;28;20300;-67
2023/03/28 07:03:35;;;;;;;;;;;;;;;4.88;39.83;94543.25;5051954;28;19927;-67
2023/03/28 07:06:05;;;;;;;;;;;;;;;5.56;39.32;94577.03;5048642;28;19924;-68
2023/03/28 07:08:32;;;;;;;;;;;;;;;5.34;39.67;94589.09;5049238;28;19924;-69
2023/03/28 07:11:00;;;;;;;;;;;;;;;5.36;39.40;94578.47;5048736;28;20015;-67
2023/03/28 07:13:27;;;;;;;;;;;;;;;5.59;39.87;94601.75;5048584;28;20387;-68
2023/03/28 07:16:03;;;;;;;;;;;;;;;5.75;39.02;94591.41;5048364;28;19931;-72
2023/03/28 07:18:32;;;;;;;;;;;;;;;5.31;40.02;94619.94;5049158;28;20330;-70
2023/03/28 07:21:03;;;;;;;;;;;;;;;5.58;39.33;94616.59;5048628;28;20327;-69
2023/03/28 07:23:31;;;;;;;;;;;;;;;5.22;39.58;94622.06;5048997;28;19920;-69
2023/03/28 07:25:57;;;;;;;;;;;;;;;5.07;39.77;94624.38;5049530;28;19920;-71
2023/03/28 07:28:24;;;;;;;;;;;;;;;5.27;39.89;94624.00;5050569;28;19920;-67
2023/03/28 07:30:55;;;;;;;;;;;;;;;5.60;39.47;94624.16;5048826;28;19920;-68
2023/03/28 07:33:21;;;;;;;;;;;;;;;6.03;38.60;94625.25;5048865;28;19931;-68
2023/03/28 07:36:28;;;;;;;;;;;;;;;5.90;38.90;94619.53;5048356;28;19925;-72
2023/03/28 07:39:05;;;;;;;;;;;;;;;5.95;38.86;94643.03;5048372;28;20331;-70
2023/03/28 07:41:31;;;;;;;;;;;;;;;5.68;39.05;94626.38;5048336;28;19921;-69
2023/03/28 07:43:58;;;;;;;;;;;;;;;6.22;38.58;94623.25;5048443;28;19920;-72
2023/03/28 07:46:25;;;;;;;;;;;;;;;6.17;38.40;94624.97;5048522;28;19959;-73
2023/03/28 07:48:53;;;;;;;;;;;;;;;6.30;37.61;94635.06;5050007;28;19947;-70
2023/03/28 07:51:19;;;;;;;;;;;;;;;5.46;38.37;94620.22;5048191;28;20026;-71
2023/03/28 07:53:46;;;;;;;;;;;;;;;5.16;38.85;94649.75;5048795;28;19924;-68
2023/03/28 07:56:14;;;;;;;;;;;;;;;5.31;38.72;94619.94;5047781;28;19921;-69
2023/03/28 07:59:00;;;;;;;;;;;;;;;5.38;38.61;94633.59;5048290;28;19920;-68
2023/03/28 08:01:27;;;;;;;;;;;;;;;5.99;38.04;94624.13;5031736;28;19928;-68
2023/03/28 08:03:59;;;;;;;;;;;;;;;5.51;38.14;94652.28;5049676;28;20305;-68
2023/03/28 08:06:39;;;;;;;;;;;;;;;5.25;38.21;94646.81;5048152;28;20395;-69
2023/03/28 08:09:07;;;;;;;;;;;;;;;5.11;38.58;94657.44;5050074;28;19931;-69
2023/03/28 08:11:39;;;;;;;;;;;;;;;5.50;38.36;94661.13;5047790;28;19921;-69
2023/03/28 08:14:10;;;;;;;;;;;;;;;5.55;38.06;94658.59;5049027;28;20485;-70
2023/03/28 08:16:36;;;;;;;;;;;;;;;5.47;38.01;94656.38;5049074;28;19931;-72
2023/03/28 08:19:03;;;;;;;;;;;;;;;5.42;38.22;94650.28;5049970;28;20444;-67
2023/03/28 08:21:41;;;;;;;;;;;;;;;5.98;38.54;94663.38;5047723;28;19947;-68
2023/03/28 08:24:10;;;;;;;;;;;;;;;5.62;37.65;94659.28;5048121;28;19931;-73
2023/03/28 08:26:55;;;;;;;;;;;;;;;5.61;38.06;94662.09;5047883;28;19921;-67
2023/03/28 08:29:22;;;;;;;;;;;;;;;5.08;38.54;94673.47;5049919;28;19921;-70
2023/03/28 08:31:49;;;;;;;;;;;;;;;5.42;38.58;94678.88;5048158;28;19920;-69
2023/03/28 08:34:16;;;;;;;;;;;;;;;5.13;39.47;94691.75;5048149;28;19927;-68
2023/03/28 08:36:43;;;;;;;;;;;;;;;4.65;39.96;94683.38;5053083;28;19924;-68
2023/03/28 08:39:23;;;;;;;;;;;;;;;5.16;39.82;94670.53;5039854;28;20023;-69
2023/03/28 08:42:04;;;;;;;;;;;;;;;5.62;39.04;94685.25;5050256;28;19927;-68
2023/03/28 08:44:32;;;;;;;;;;;;;;;5.42;39.11;94684.06;5049033;28;19921;-74
2023/03/28 08:47:04;;;;;;;;;;;;;;;5.81;38.75;94698.88;5048223;28;19943;-69
2023/03/28 08:49:37;;;;;;;;;;;;;;;6.02;38.15;94690.50;5049071;28;19920;-68
2023/03/28 08:52:04;;;;;;;;;;;;;;;5.84;38.01;94698.44;5038090;28;20439;-69
2023/03/28 08:55:01;;;;;;;;;;;;;;;5.96;37.33;94687.03;5048790;28;19921;-70
2023/03/28 08:57:28;;;;;;;;;;;;;;;6.31;37.76;94704.28;5041533;28;19924;-69
2023/03/28 09:00:09;;;;;;;;;;;;;;;5.82;38.16;94700.50;5051357;28;19928;-70
2023/03/28 09:02:36;;;;;;;;;;;;;;;5.75;38.33;94713.59;5048108;28;19920;-69
2023/03/28 09:05:03;;;;;;;;;;;;;;;5.67;38.36;94726.97;5048095;28;19931;-68
2023/03/28 09:07:55;;;;;;;;;;;;;;;6.20;38.14;94711.13;5050134;28;19927;-69
2023/03/28 09:10:25;;;;;;;;;;;;;;;6.31;38.19;94720.69;5051594;28;20359;-68
2023/03/28 09:13:07;;;;;;;;;;;;;;;6.10;37.58;94724.72;5051397;28;19935;-68
2023/03/28 09:15:53;;;;;;;;;;;;;;;6.12;37.61;94708.88;5052889;28;20023;-69
2023/03/28 09:18:36;;;;;;;;;;;;;;;6.59;37.64;94722.47;5051670;28;19921;-67
2023/03/28 09:21:17;;;;;;;;;;;;;;;6.75;37.83;94730.31;5054972;28;19924;-69
2023/03/28 09:23:48;;;;;;;;;;;;;;;6.08;37.56;94725.97;5055901;28;19920;-69
2023/03/28 09:26:46;;;;;;;;;;;;;;;6.10;37.61;94713.53;5053028;28;20044;-71
2023/03/28 09:29:18;;;;;;;;;;;;;;;6.50;37.74;94729.88;5050739;28;19975;-69
2023/03/28 09:31:47;;;;;;;;;;;;;;;6.40;38.14;94740.13;5035345;28;19921;-71
2023/03/28 09:34:21;;;;;;;;;;;;;;;6.66;38.59;94739.53;5050870;28;20367;-68
2023/03/28 09:36:52;;;;;;;;;;;;;;;6.70;38.28;94739.84;5050147;28;20503;-69
2023/03/28 09:39:27;;;;;;;;;;;;;;;6.43;38.35;94729.25;5050724;28;19924;-67
2023/03/28 09:42:18;;;;;;;;;;;;;;;6.43;38.50;94724.03;5050469;28;19935;-73
2023/03/28 09:45:07;;;;;;;;;;;;;;;6.45;38.80;94715.97;5051744;28;19925;-69
2023/03/28 09:47:52;;;;;;;;;;;;;;;6.91;38.19;94719.13;5051748;28;19933;-70
2023/03/28 09:50:23;;;;;;;;;;;;;;;7.08;37.96;94732.94;5050509;28;19921;-67
2023/03/28 09:52:55;;;;;;;;;;;;;;;7.02;37.55;94733.91;5050059;28;19947;-68
2023/03/28 09:55:24;;;;;;;;;;;;;;;7.05;37.30;94724.78;5051888;28;19920;-68
2023/03/28 09:57:58;;;;;;;;;;;;;;;7.30;36.91;94734.81;5035801;28;19921;-68
2023/03/28 10:00:25;;;;;;;;;;;;;;;7.65;36.38;94737.91;5051911;28;19931;-69
2023/03/28 10:03:22;;;;;;;;;;;;;;;7.24;36.93;94740.97;5051896;28;20038;-69
2023/03/28 10:05:51;;;;;;;;;;;;;;;6.39;38.15;94745.53;5051179;28;20727;-68
2023/03/28 10:08:35;;;;;;;;;;;;;;;6.02;39.23;94747.72;5050036;28;19978;-69
2023/03/28 10:11:14;;;;;;;;;;;;;;;5.84;38.78;94750.44;5049741;28;19928;-70
2023/03/28 10:13:47;;;;;;;;;;;;;;;6.44;37.27;94730.81;5052024;28;19932;-67
2023/03/28 10:16:20;;;;;;;;;;;;;;;6.72;37.33;94743.81;5050657;28;19925;-67
2023/03/28 10:19:12;;;;;;;;;;;;;;;6.77;35.57;94735.31;5042419;28;20281;-70
2023/03/28 10:22:01;;;;;;;;;;;;;;;7.33;34.67;94731.72;5040359;28;19932;-68
2023/03/28 10:24:31;;;;;;;;;;;;;;;7.59;34.35;94724.00;5049658;28;19931;-70
2023/03/28 10:27:16;;;;;;;;;;;;;;;7.30;34.99;94716.59;5033410;28;19947;-70
2023/03/28 10:29:45;;;;;;;;;;;;;;;7.11;34.92;94737.69;5034074;28;19925;-71
2023/03/28 10:32:22;;;;;;;;;;;;;;;6.78;35.38;94726.44;5059083;28;19932;-68
2023/03/28 10:35:14;;;;;;;;;;;;;;;6.71;36.11;94746.66;5049856;28;19924;-68
2023/03/28 10:37:47;;;;;;;;;;;;;;;6.69;35.36;94744.28;5049305;28;19924;-72
2023/03/28 10:40:24;;;;;;;;;;;;;;;7.21;35.40;94736.25;5049733;28;20441;-69
2023/03/28 10:43:11;;;;;;;;;;;;;;;7.60;34.94;94720.41;5049404;28;19948;-67
2023/03/28 10:46:19;;;;;;;;;;;;;;;7.07;35.04;94731.38;5044136;28;19921;-69
2023/03/28 10:49:11;;;;;;;;;;;;;;;7.12;36.03;94726.22;5051445;28;19932;-68
2023/03/28 10:51:41;;;;;;;;;;;;;;;6.96;35.45;94760.88;5049096;28;19964;-69
2023/03/28 10:54:08;;;;;;;;;;;;;;;6.54;36.14;94751.81;5038629;28;20380;-70
2023/03/28 10:56:43;;;;;;;;;;;;;;;6.87;36.84;94757.09;5043682;28;19944;-71
2023/03/28 10:59:45;;;;;;;;;;;;;;;7.25;35.85;94761.59;5049577;28;19920;-68
2023/03/28 11:02:27;;;;;;;;;;;;;;;7.23;36.48;94768.84;5017833;28;19979;-68
2023/03/28 11:05:00;;;;;;;;;;;;;;;7.72;36.32;94748.97;5048939;28;19920;-68
2023/03/28 11:07:27;;;;;;;;;;;;;;;7.94;35.08;94747.16;5048961;28;19974;-72
2023/03/28 11:10:33;;;;;;;;;;;;;;;8.05;34.61;94754.06;5028747;28;19920;-71
2023/03/28 11:13:35;;;;;;;;;;;;;;;8.07;34.52;94757.25;5049027;28;19921;-71
2023/03/28 11:16:14;;;;;;;;;;;;;;;7.58;34.49;94747.72;5048266;28;20314;-69
2023/03/28 11:19:14;;;;;;;;;;;;;;;8.33;34.23;94756.53;5049096;28;20559;-67
2023/03/28 11:21:46;;;;;;;;;;;;;;;8.13;33.80;94746.63;5033149;28;19925;-69
2023/03/28 11:24:41;;;;;;;;;;;;;;;8.51;33.66;94737.94;5034356;28;19925;-70
2023/03/28 11:27:36;;;;;;;;;;;;;;;8.29;33.49;94747.63;5047887;28;19920;-69
2023/03/28 11:30:22;;;;;;;;;;;;;;;7.89;33.77;94739.28;5048093;28;19928;-69
2023/03/28 11:33:15;;;;;;;;;;;;;;;8.29;32.85;94729.34;5036661;28;20443;-71
2023/03/28 11:35:47;;;;;;;;;;;;;;;8.18;32.28;94753.72;5048894;28;19999;-71
2023/03/28 11:38:21;;;;;;;;;;;;;;;8.58;32.62;94728.06;5048191;28;19924;-69
2023/03/28 11:41:06;;;;;;;;;;;;;;;8.33;32.08;94735.66;5048474;28;20480;-70
2023/03/28 11:44:01;;;;;;;;;;;;;;;8.42;31.90;94760.28;5049470;28;20331;-72
2023/03/28 11:46:28;;;;;;;;;;;;;;;8.48;32.25;94743.66;5048112;28;19924;-69
2023/03/28 11:49:20;;;;;;;;;;;;;;;7.82;31.90;94760.31;5049998;28;19929;-70
2023/03/28 11:51:52;;;;;;;;;;;;;;;7.54;32.44;94762.25;5048193;28;19944;-68
2023/03/28 11:54:29;;;;;;;;;;;;;;;8.29;31.26;94754.66;5048886;28;19921;-69
2023/03/28 11:56:56;;;;;;;;;;;;;;;8.36;31.01;94758.66;5035511;28;19930;-68
2023/03/28 11:59:45;;;;;;;;;;;;;;;8.56;30.37;94732.00;5048048;28;19928;-68
2023/03/28 12:02:41;;;;;;;;;;;;;;;8.50;30.25;94759.06;5048431;28;20539;-67
2023/03/28 12:05:17;;;;;;;;;;;;;;;8.38;30.83;94748.75;5032667;28;19925;-71
2023/03/28 12:07:49;;;;;;;;;;;;;;;7.93;30.80;94712.47;5048342;28;19943;-70
2023/03/28 12:10:35;;;;;;;;;;;;;;;8.53;30.76;94735.88;5050637;28;19979;-68
2023/03/28 12:13:12;;;;;;;;;;;;;;;9.72;29.85;94713.53;5048285;28;19924;-70
2023/03/28 12:16:16;;;;;;;;;;;;;;;10.16;29.26;94735.72;5048431;28;19978;-69
2023/03/28 12:18:45;;;;;;;;;;;;;;;10.34;28.69;94752.81;5025782;28;19921;-68
2023/03/28 12:21:50;;;;;;;;;;;;;;;9.71;28.35;94755.63;5030245;28;19924;-71
2023/03/28 12:24:43;;;;;;;;;;;;;;;9.01;29.44;94748.06;5048334;28;19932;-71
2023/03/28 12:27:21;;;;;;;;;;;;;;;8.08;30.13;94756.22;5047821;28;19925;-70
2023/03/28 12:29:47;;;;;;;;;;;;;;;8.91;30.60;94755.81;5037646;28;19920;-70
2023/03/28 12:32:20;;;;;;;;;;;;;;;8.62;29.41;94765.72;5047165;28;19924;-71
2023/03/28 12:35:11;;;;;;;;;;;;;;;9.93;28.76;94751.03;5048705;28;20347;-70
2023/03/28 12:38:16;;;;;;;;;;;;;;;10.31;27.92;94748.09;5037366;28;19994;-72
2023/03/28 12:40:45;;;;;;;;;;;;;;;9.48;28.69;94758.63;5049000;28;19925;-71
2023/03/28 12:43:15;;;;;;;;;;;;;;;10.02;28.64;94752.13;5052271;28;20019;-72
2023/03/28 12:45:44;;;;;;;;;;;;;;;9.89;28.53;94756.00;5051933;28;19923;-66
2023/03/28 12:48:23;;;;;;;;;;;;;;;10.06;27.04;94798.50;5051423;28;20383;-71
2023/03/28 12:51:00;;;;;;;;;;;;;;;10.11;27.61;94754.03;5051837;28;20015;-70
2023/03/28 12:53:30;;;;;;;;;;;;;;;10.09;26.78;94743.03;5051501;28;20032;-69
2023/03/28 12:55:58;;;;;;;;;;;;;;;10.10;26.90;94756.91;5051480;28;20438;-69
2023/03/28 12:58:35;;;;;;;;;;;;;;;10.54;27.44;94726.69;5037855;28;19927;-73
2023/03/28 13:01:08;;;;;;;;;;;;;;;9.59;26.32;94760.25;5051345;28;19947;-67
2023/03/28 13:03:54;;;;;;;;;;;;;;;10.08;26.59;94765.00;5052962;28;19924;-70
2023/03/28 13:06:39;;;;;;;;;;;;;;;9.53;26.80;94777.75;5051129;28;19921;-69
2023/03/28 13:09:22;;;;;;;;;;;;;;;9.71;26.75;94760.84;5054434;28;20308;-68
2023/03/28 13:12:00;;;;;;;;;;;;;;;9.77;26.87;94772.94;5056501;28;19978;-71
2023/03/28 13:14:31;;;;;;;;;;;;;;;10.68;25.97;94795.88;5052371;28;19960;-71
2023/03/28 13:17:00;;;;;;;;;;;;;;;10.47;25.91;94778.53;5051842;28;19932;-69
2023/03/28 13:19:43;;;;;;;;;;;;;;;10.27;25.80;94796.78;5052268;28;20385;-71
2023/03/28 13:22:29;;;;;;;;;;;;;;;9.97;26.16;94804.44;5052348;28;19920;-69
2023/03/28 13:25:15;;;;;;;;;;;;;;;10.52;26.31;94783.78;5040264;28;19982;-73
2023/03/28 13:27:42;;;;;;;;;;;;;;;10.95;25.35;94793.06;5051479;28;19925;-72
2023/03/28 13:30:16;;;;;;;;;;;;;;;11.43;24.90;94791.78;5052365;28;19931;-73
2023/03/28 13:32:51;;;;;;;;;;;;;;;11.76;24.62;94796.53;5052015;28;19971;-70
2023/03/28 13:35:36;;;;;;;;;;;;;;;11.26;24.38;94796.53;5052423;28;20341;-69
2023/03/28 13:38:22;;;;;;;;;;;;;;;11.37;23.97;94798.88;5051376;28;19925;-70
2023/03/28 13:40:53;;;;;;;;;;;;;;;11.47;23.66;94787.59;5052419;28;19982;-69